createdAt,value
2022-09-25T00:01:46.596Z,13.40
2022-09-25T00:04:17.387Z,13.50
2022-09-25T00:06:48.176Z,13.50
2022-09-25T00:09:20.979Z,13.40
2022-09-25T00:11:51.724Z,13.30
2022-09-25T00:14:22.266Z,13.30
2022-09-25T00:16:52.956Z,13.40
2022-09-25T00:19:42.249Z,13.50
2022-09-25T00:22:12.830Z,13.40
2022-09-25T00:24:43.402Z,13.40
2022-09-25T00:27:14.077Z,13.40
2022-09-25T00:29:44.675Z,13.50
2022-09-25T00:32:16.103Z,13.50
2022-09-25T00:34:46.940Z,13.50
2022-09-25T00:37:17.458Z,13.40
2022-09-25T00:39:48.069Z,13.50
2022-09-25T00:42:21.556Z,13.50
2022-09-25T00:44:58.989Z,13.60
2022-09-25T00:47:54.662Z,13.50
2022-09-25T00:50:32.873Z,13.50
2022-09-25T00:53:07.647Z,13.60
2022-09-25T00:55:39.906Z,13.60
2022-09-25T00:58:11.763Z,13.60
2022-09-25T01:00:43.019Z,13.50
2022-09-25T01:03:14.418Z,13.50
2022-09-25T01:05:46.957Z,13.50
2022-09-25T01:08:21.231Z,13.60
2022-09-25T01:10:52.097Z,13.60
2022-09-25T01:13:23.093Z,13.60
2022-09-25T01:15:58.012Z,13.50
2022-09-25T01:18:35.964Z,13.50
2022-09-25T01:21:17.477Z,13.50
2022-09-25T01:24:21.881Z,13.60
2022-09-25T01:27:19.356Z,13.50
2022-09-25T01:29:55.010Z,13.50
2022-09-25T01:32:30.276Z,13.50
2022-09-25T01:35:03.886Z,13.60
2022-09-25T01:37:39.129Z,13.60
2022-09-25T01:40:13.538Z,13.60
2022-09-25T01:42:48.825Z,13.60
2022-09-25T01:45:24.081Z,13.50
2022-09-25T01:47:57.391Z,13.40
2022-09-25T01:50:30.916Z,13.40
2022-09-25T01:53:04.444Z,13.50
2022-09-25T01:55:38.800Z,13.40
2022-09-25T01:58:12.275Z,13.40
2022-09-25T02:00:45.466Z,13.40
2022-09-25T02:05:58.442Z,13.40
2022-09-25T02:08:32.572Z,13.40
2022-09-25T02:11:05.901Z,13.40
2022-09-25T02:16:20.072Z,13.50
2022-09-25T02:19:08.979Z,13.50
2022-09-25T02:21:45.144Z,13.50
2022-09-25T02:24:21.889Z,13.60
2022-09-25T02:26:52.979Z,13.60
2022-09-25T02:29:23.810Z,13.50
2022-09-25T02:34:35.800Z,13.60
2022-09-25T02:37:11.275Z,13.60
2022-09-25T02:39:44.390Z,13.60
2022-09-25T02:42:24.197Z,13.60
2022-09-25T02:45:06.716Z,13.60
2022-09-25T02:50:23.549Z,13.70
2022-09-25T02:52:57.027Z,13.70
2022-09-25T02:55:32.041Z,13.70
2022-09-25T02:58:06.359Z,13.70
2022-09-25T03:00:40.153Z,13.60
2022-09-25T03:03:13.406Z,13.70
2022-09-25T03:05:44.721Z,13.70
2022-09-25T03:08:33.559Z,13.70
2022-09-25T03:11:05.346Z,13.70
2022-09-25T03:13:36.137Z,13.80
2022-09-25T03:16:09.815Z,13.70
2022-09-25T03:18:40.439Z,13.70
2022-09-25T03:21:11.017Z,13.70
2022-09-25T03:23:41.688Z,13.70
2022-09-25T03:26:12.295Z,13.70
2022-09-25T03:28:43.254Z,13.70
2022-09-25T03:31:14.440Z,13.80
2022-09-25T03:33:46.488Z,13.70
2022-09-25T03:36:19.300Z,13.70
2022-09-25T03:38:51.388Z,13.70
2022-09-25T03:41:23.646Z,13.60
2022-09-25T03:43:54.631Z,13.60
2022-09-25T03:46:27.439Z,13.60
2022-09-25T03:48:58.818Z,13.60
2022-09-25T03:51:31.516Z,13.60
2022-09-25T03:54:04.286Z,13.60
2022-09-25T03:56:35.466Z,13.60
2022-09-25T03:59:06.326Z,13.60
2022-09-25T04:01:37.136Z,13.60
2022-09-25T04:04:07.770Z,13.60
2022-09-25T04:06:38.452Z,13.70
2022-09-25T04:09:09.028Z,13.60
2022-09-25T04:11:39.709Z,13.60
2022-09-25T04:14:11.873Z,13.60
2022-09-25T04:16:43.507Z,13.60
2022-09-25T04:19:16.214Z,13.60
2022-09-25T04:21:46.753Z,13.50
2022-09-25T04:24:35.142Z,13.60
2022-09-25T04:27:05.826Z,13.60
2022-09-25T04:29:36.420Z,13.60
2022-09-25T04:32:24.387Z,13.60
2022-09-25T04:34:55.036Z,13.60
2022-09-25T04:37:26.487Z,13.50
2022-09-25T04:39:58.253Z,13.50
2022-09-25T04:42:28.968Z,13.50
2022-09-25T04:44:59.900Z,13.50
2022-09-25T04:47:31.809Z,13.50
2022-09-25T04:50:02.560Z,13.50
2022-09-25T04:52:33.213Z,13.40
2022-09-25T04:55:04.530Z,13.50
2022-09-25T04:57:57.213Z,13.50
2022-09-25T05:00:10.696Z,13.50
2022-09-25T05:02:41.450Z,13.50
2022-09-25T05:05:13.127Z,13.50
2022-09-25T05:07:46.236Z,13.40
2022-09-25T05:10:17.297Z,13.40
2022-09-25T05:12:48.477Z,13.30
2022-09-25T05:15:19.984Z,13.20
2022-09-25T05:17:50.759Z,13.30
2022-09-25T05:20:21.468Z,13.10
2022-09-25T05:22:55.207Z,13.00
2022-09-25T05:25:25.808Z,13.10
2022-09-25T05:27:58.352Z,13.10
2022-09-25T05:30:30.584Z,13.10
2022-09-25T05:33:02.047Z,13.00
2022-09-25T05:35:34.506Z,13.00
2022-09-25T05:38:06.886Z,13.00
2022-09-25T05:40:39.811Z,13.00
2022-09-25T05:43:10.827Z,13.00
2022-09-25T05:45:41.830Z,13.00
2022-09-25T05:48:12.931Z,13.00
2022-09-25T05:50:43.948Z,13.00
2022-09-25T05:53:14.581Z,13.00
2022-09-25T05:55:47.142Z,13.10
2022-09-25T05:58:17.834Z,13.10
2022-09-25T06:00:48.816Z,13.10
2022-09-25T06:03:20.866Z,13.20
2022-09-25T06:05:51.600Z,13.20
2022-09-25T06:08:22.312Z,13.20
2022-09-25T06:10:55.696Z,13.20
2022-09-25T06:13:27.141Z,13.20
2022-09-25T06:15:57.797Z,13.10
2022-09-25T06:18:28.910Z,13.30
2022-09-25T06:21:04.077Z,13.30
2022-09-25T06:23:35.733Z,13.30
2022-09-25T06:26:09.616Z,13.40
2022-09-25T06:28:48.057Z,13.40
2022-09-25T06:31:18.889Z,13.50
2022-09-25T06:33:52.878Z,13.50
2022-09-25T06:36:23.816Z,13.50
2022-09-25T06:38:57.516Z,13.40
2022-09-25T06:41:28.358Z,13.50
2022-09-25T06:44:00.120Z,13.60
2022-09-25T06:46:32.319Z,13.60
2022-09-25T06:49:03.260Z,13.70
2022-09-25T06:51:37.042Z,13.70
2022-09-25T06:54:07.814Z,13.70
2022-09-25T06:56:38.437Z,13.60
2022-09-25T06:59:09.883Z,13.70
2022-09-25T07:01:41.013Z,13.70
2022-09-25T07:06:49.805Z,13.80
2022-09-25T07:09:20.898Z,13.90
2022-09-25T07:11:53.282Z,13.90
2022-09-25T07:14:24.074Z,14.00
2022-09-25T07:16:55.042Z,14.10
2022-09-25T07:19:27.877Z,14.20
2022-09-25T07:22:00.054Z,14.20
2022-09-25T07:24:33.077Z,14.20
2022-09-25T07:27:03.745Z,14.20
2022-09-25T07:29:35.693Z,14.20
2022-09-25T07:32:08.022Z,14.10
2022-09-25T07:34:38.864Z,14.00
2022-09-25T07:37:09.587Z,14.00
2022-09-25T07:42:28.271Z,14.00
2022-09-25T07:45:01.159Z,14.00
2022-09-25T07:47:38.292Z,14.10
2022-09-25T07:50:12.043Z,14.10
2022-09-25T07:52:41.277Z,14.20
2022-09-25T07:55:13.534Z,14.20
2022-09-25T07:57:44.578Z,14.20
2022-09-25T08:02:59.444Z,14.20
2022-09-25T08:05:30.551Z,14.30
2022-09-25T08:08:01.410Z,14.40
2022-09-25T08:10:32.558Z,14.40
2022-09-25T08:13:03.364Z,14.50
2022-09-25T08:18:12.257Z,14.70
2022-09-25T08:20:42.974Z,14.90
2022-09-25T08:23:13.737Z,14.80
2022-09-25T08:25:44.354Z,14.80
2022-09-25T08:30:55.197Z,14.80
2022-09-25T08:33:26.133Z,14.80
2022-09-25T08:36:01.354Z,14.80
2022-09-25T08:38:33.677Z,14.70
2022-09-25T08:41:08.297Z,14.70
2022-09-25T08:43:42.226Z,14.70
2022-09-25T08:49:07.183Z,14.80
2022-09-25T08:51:40.821Z,14.90
2022-09-25T08:54:15.491Z,14.80
2022-09-25T08:56:46.328Z,14.90
2022-09-25T08:59:23.477Z,15.10
2022-09-25T09:01:57.412Z,15.10
2022-09-25T09:04:32.439Z,15.10
2022-09-25T09:09:46.898Z,15.30
2022-09-25T09:12:20.718Z,15.30
2022-09-25T09:14:55.135Z,15.40
2022-09-25T09:20:12.492Z,15.40
2022-09-25T09:22:46.167Z,15.50
2022-09-25T09:25:23.030Z,15.50
2022-09-25T09:28:05.730Z,15.50
2022-09-25T09:30:39.336Z,15.50
2022-09-25T09:36:07.681Z,15.50
2022-09-25T09:38:44.456Z,15.40
2022-09-25T09:41:25.380Z,15.30
2022-09-25T09:44:03.634Z,15.50
2022-09-25T09:46:40.631Z,15.50
2022-09-25T09:49:16.424Z,15.70
2022-09-25T09:51:50.578Z,15.70
2022-09-25T09:54:25.153Z,15.80
2022-09-25T09:56:59.023Z,15.50
2022-09-25T09:59:32.530Z,15.50
2022-09-25T10:02:07.003Z,15.40
2022-09-25T10:04:40.785Z,15.20
2022-09-25T10:07:14.599Z,15.20
2022-09-25T10:09:45.391Z,15.20
2022-09-25T10:12:19.031Z,15.30
2022-09-25T10:14:51.299Z,15.20
2022-09-25T10:17:24.308Z,15.20
2022-09-25T10:19:58.209Z,15.30
2022-09-25T10:22:31.288Z,15.30
2022-09-25T10:25:02.961Z,15.20
2022-09-25T10:27:36.770Z,15.30
2022-09-25T10:30:20.629Z,15.40
2022-09-25T10:33:01.187Z,15.50
2022-09-25T10:35:35.915Z,15.70
2022-09-25T10:38:08.902Z,15.90
2022-09-25T10:40:41.317Z,16.00
2022-09-25T10:43:24.300Z,16.30
2022-09-25T10:46:07.203Z,16.60
2022-09-25T10:48:56.876Z,16.70
2022-09-25T10:51:28.651Z,17.00
2022-09-25T10:54:13.926Z,17.00
2022-09-25T10:56:45.191Z,17.10
2022-09-25T11:01:57.569Z,17.30
2022-09-25T11:04:31.833Z,17.10
2022-09-25T11:07:06.545Z,17.00
2022-09-25T11:09:40.309Z,16.80
2022-09-25T11:12:15.171Z,16.60
2022-09-25T11:14:50.385Z,16.20
2022-09-25T11:17:34.668Z,16.30
2022-09-25T11:20:27.243Z,16.50
2022-09-25T11:23:16.427Z,16.70
2022-09-25T11:25:50.013Z,17.20
2022-09-25T11:28:23.974Z,17.20
2022-09-25T11:30:58.074Z,17.00
2022-09-25T11:33:33.539Z,17.10
2022-09-25T11:39:04.227Z,17.50
2022-09-25T11:41:41.070Z,17.50
2022-09-25T11:44:21.052Z,17.90
2022-09-25T11:46:57.552Z,17.80
2022-09-25T11:52:41.159Z,17.80
2022-09-25T11:55:43.483Z,17.70
2022-09-25T11:58:27.720Z,17.60
2022-09-25T12:01:02.521Z,17.50
2022-09-25T12:03:41.376Z,17.60
2022-09-25T12:06:33.373Z,17.30
2022-09-25T12:09:15.151Z,17.30
2022-09-25T12:11:49.173Z,17.10
2022-09-25T12:14:23.099Z,17.20
2022-09-25T12:17:22.096Z,17.20
2022-09-25T12:23:01.994Z,19.10
2022-09-25T12:25:40.526Z,19.80
2022-09-25T12:30:59.584Z,18.90
2022-09-25T12:33:39.589Z,18.80
2022-09-25T12:36:15.134Z,19.70
2022-09-25T12:38:49.020Z,20.90
2022-09-25T12:41:22.692Z,20.20
2022-09-25T12:43:58.099Z,20.30
2022-09-25T12:46:32.119Z,20.90
2022-09-25T12:49:08.384Z,20.60
2022-09-25T12:51:43.094Z,20.00
2022-09-25T12:54:23.917Z,19.00
2022-09-25T12:56:59.403Z,18.70
2022-09-25T13:02:16.210Z,17.90
2022-09-25T13:05:04.307Z,17.90
2022-09-25T13:07:40.649Z,17.80
2022-09-25T13:10:26.926Z,18.00
2022-09-25T13:13:01.291Z,18.20
2022-09-25T13:15:35.629Z,19.00
2022-09-25T13:18:10.162Z,18.80
2022-09-25T13:20:56.961Z,18.70
2022-09-25T13:23:48.422Z,18.30
2022-09-25T13:26:24.450Z,18.10
2022-09-25T13:29:19.178Z,17.90
2022-09-25T13:31:50.744Z,17.90
2022-09-25T13:34:24.658Z,18.10
2022-09-25T13:36:57.801Z,18.00
2022-09-25T13:39:49.158Z,18.00
2022-09-25T13:45:33.346Z,17.80
2022-09-25T13:48:09.058Z,18.00
2022-09-25T13:50:42.907Z,17.90
2022-09-25T13:53:31.175Z,17.90
2022-09-25T13:56:25.628Z,17.80
2022-09-25T13:59:23.335Z,17.70
2022-09-25T14:02:02.767Z,17.40
2022-09-25T14:04:37.963Z,17.50
2022-09-25T14:07:15.970Z,17.70
2022-09-25T14:09:49.657Z,17.60
2022-09-25T14:12:29.547Z,17.60
2022-09-25T14:15:06.058Z,17.70
2022-09-25T14:17:38.774Z,17.70
2022-09-25T14:22:58.006Z,17.60
2022-09-25T14:25:34.138Z,17.60
2022-09-25T14:28:07.627Z,18.00
2022-09-25T14:30:38.529Z,18.40
2022-09-25T14:33:18.484Z,18.50
2022-09-25T14:35:57.698Z,18.90
2022-09-25T14:39:03.216Z,19.10
2022-09-25T14:42:09.425Z,18.70
2022-09-25T14:47:23.867Z,17.90
2022-09-25T14:49:56.342Z,17.70
2022-09-25T14:52:31.461Z,17.60
2022-09-25T14:55:02.992Z,17.30
2022-09-25T14:57:39.649Z,17.30
2022-09-25T15:00:17.324Z,17.30
2022-09-25T15:02:51.013Z,17.20
2022-09-25T15:05:31.320Z,17.10
2022-09-25T15:08:03.534Z,17.10
2022-09-25T15:10:37.377Z,16.90
2022-09-25T15:13:16.785Z,16.70
2022-09-25T15:16:08.771Z,16.60
2022-09-25T15:21:25.642Z,16.60
2022-09-25T15:23:59.147Z,16.60
2022-09-25T15:26:31.120Z,16.40
2022-09-25T15:29:01.867Z,16.40
2022-09-25T15:31:38.648Z,16.60
2022-09-25T15:34:15.256Z,16.50
2022-09-25T15:36:46.082Z,16.50
2022-09-25T15:39:18.772Z,16.40
2022-09-25T15:41:49.700Z,16.30
2022-09-25T15:44:24.900Z,16.30
2022-09-25T15:46:57.525Z,16.20
2022-09-25T15:49:31.464Z,16.20
2022-09-25T15:52:04.985Z,16.20
2022-09-25T15:54:38.928Z,16.10
2022-09-25T15:57:13.527Z,16.10
2022-09-25T16:00:06.065Z,16.10
2022-09-25T16:02:57.292Z,16.10
2022-09-25T16:05:31.071Z,16.20
2022-09-25T16:08:21.290Z,16.20
2022-09-25T16:10:53.595Z,16.20
2022-09-25T16:13:26.741Z,16.10
2022-09-25T16:15:58.182Z,16.20
2022-09-25T16:18:37.718Z,16.30
2022-09-25T16:21:16.985Z,16.30
2022-09-25T16:23:56.165Z,16.30
2022-09-25T16:26:28.952Z,16.40
2022-09-25T16:29:05.198Z,16.40
2022-09-25T16:31:37.111Z,16.40
2022-09-25T16:34:11.347Z,16.40
2022-09-25T16:36:44.409Z,16.20
2022-09-25T16:39:25.773Z,16.10
2022-09-25T16:41:57.121Z,16.00
2022-09-25T16:44:42.352Z,15.80
2022-09-25T16:47:19.991Z,15.80
2022-09-25T16:49:51.283Z,15.70
2022-09-25T16:52:24.445Z,15.70
2022-09-25T16:54:57.502Z,15.60
2022-09-25T16:57:29.513Z,15.50
2022-09-25T17:00:00.249Z,15.40
2022-09-25T17:02:37.147Z,15.20
2022-09-25T17:05:11.329Z,15.10
2022-09-25T17:07:41.973Z,15.00
2022-09-25T17:10:16.308Z,14.90
2022-09-25T17:12:53.486Z,14.90
2022-09-25T17:15:24.468Z,14.80
2022-09-25T17:17:55.585Z,14.60
2022-09-25T17:20:28.159Z,14.40
2022-09-25T17:23:00.369Z,14.30
2022-09-25T17:25:40.353Z,14.10
2022-09-25T17:28:12.684Z,14.10
2022-09-25T17:30:45.654Z,13.90
2022-09-25T17:33:19.194Z,13.80
2022-09-25T17:35:53.026Z,13.60
2022-09-25T17:38:23.764Z,13.60
2022-09-25T17:40:57.764Z,13.70
2022-09-25T17:43:28.883Z,13.80
2022-09-25T17:46:00.937Z,13.80
2022-09-25T17:48:33.139Z,13.70
2022-09-25T17:51:06.004Z,13.60
2022-09-25T17:53:36.765Z,13.60
2022-09-25T17:56:07.756Z,13.40
2022-09-25T17:58:38.784Z,13.30
2022-09-25T18:01:15.544Z,13.20
2022-09-25T18:03:46.216Z,13.10
2022-09-25T18:06:16.906Z,13.00
2022-09-25T18:08:48.294Z,13.00
2022-09-25T18:11:20.014Z,13.00
2022-09-25T18:13:54.252Z,13.00
2022-09-25T18:16:27.982Z,13.00
2022-09-25T18:19:36.473Z,13.00
2022-09-25T18:22:21.987Z,12.90
2022-09-25T18:24:55.585Z,12.90
2022-09-25T18:27:28.845Z,12.90
2022-09-25T18:30:00.575Z,12.70
2022-09-25T18:32:33.190Z,12.70
2022-09-25T18:35:04.791Z,12.70
2022-09-25T18:37:35.458Z,12.60
2022-09-25T18:40:08.527Z,12.70
2022-09-25T18:42:39.739Z,12.70
2022-09-25T18:45:12.994Z,12.70
2022-09-25T18:47:43.695Z,12.80
2022-09-25T18:50:19.690Z,12.60
2022-09-25T18:52:47.529Z,12.50
2022-09-25T18:55:18.467Z,12.40
2022-09-25T18:57:49.227Z,12.30
2022-09-25T19:00:20.578Z,12.30
2022-09-25T19:02:51.675Z,12.20
2022-09-25T19:05:22.483Z,12.20
2022-09-25T19:07:55.204Z,12.10
2022-09-25T19:10:26.131Z,12.00
2022-09-25T19:12:56.735Z,11.90
2022-09-25T19:15:28.906Z,11.90
2022-09-25T19:18:00.563Z,11.80
2022-09-25T19:20:31.483Z,11.90
2022-09-25T19:23:03.563Z,11.90
2022-09-25T19:25:34.332Z,11.90
2022-09-25T19:28:05.422Z,11.80
2022-09-25T19:30:37.282Z,11.70
2022-09-25T19:33:08.328Z,11.60
2022-09-25T19:35:38.985Z,11.60
2022-09-25T19:38:12.769Z,11.60
2022-09-25T19:40:43.928Z,11.70
2022-09-25T19:43:14.576Z,11.70
2022-09-25T19:45:52.017Z,11.70
2022-09-25T19:48:23.341Z,11.50
2022-09-25T19:50:57.095Z,11.50
2022-09-25T19:53:27.668Z,11.60
2022-09-25T19:55:58.202Z,11.50
2022-09-25T19:58:29.125Z,11.40
2022-09-25T20:03:35.984Z,11.40
2022-09-25T20:06:07.767Z,11.50
2022-09-25T20:08:39.019Z,11.40
2022-09-25T20:11:18.963Z,11.30
2022-09-25T20:13:50.919Z,11.30
2022-09-25T20:16:24.314Z,11.30
2022-09-25T20:18:57.870Z,11.30
2022-09-25T20:21:30.206Z,11.30
2022-09-25T20:24:02.772Z,11.30
2022-09-25T20:26:33.706Z,11.40
2022-09-25T20:29:09.008Z,11.30
2022-09-25T20:31:40.906Z,11.20
2022-09-25T20:34:14.772Z,11.10
2022-09-25T20:36:46.777Z,11.20
2022-09-25T20:39:21.144Z,11.00
2022-09-25T20:41:49.946Z,11.00
2022-09-25T20:44:20.565Z,10.90
2022-09-25T20:46:51.059Z,10.80
2022-09-25T20:49:22.270Z,10.80
2022-09-25T20:51:53.533Z,10.90
2022-09-25T20:54:26.910Z,10.80
2022-09-25T20:56:57.587Z,10.70
2022-09-25T20:59:28.453Z,10.80
2022-09-25T21:02:00.184Z,10.90
2022-09-25T21:04:31.179Z,10.80
2022-09-25T21:07:01.990Z,10.70
2022-09-25T21:09:32.558Z,10.70
2022-09-25T21:12:05.783Z,10.70
2022-09-25T21:14:37.253Z,10.60
2022-09-25T21:17:07.807Z,10.70
2022-09-25T21:19:39.183Z,10.80
2022-09-25T21:22:09.721Z,10.80
2022-09-25T21:24:40.741Z,10.70
2022-09-25T21:27:11.302Z,10.70
2022-09-25T21:29:41.933Z,10.90
2022-09-25T21:32:12.448Z,10.90
2022-09-25T21:34:42.977Z,10.80
2022-09-25T21:37:13.574Z,10.80
2022-09-25T21:39:45.144Z,10.90
2022-09-25T21:42:15.749Z,10.90
2022-09-25T21:44:46.337Z,10.80
2022-09-25T21:47:18.047Z,10.80
2022-09-25T21:49:49.046Z,10.80
2022-09-25T21:52:19.593Z,10.70
2022-09-25T21:54:50.100Z,10.70
2022-09-25T21:57:20.793Z,10.70
2022-09-25T21:59:52.558Z,10.70
2022-09-25T22:02:23.295Z,10.80
2022-09-25T22:04:53.901Z,10.80
2022-09-25T22:07:24.426Z,10.80
2022-09-25T22:09:55.410Z,10.80
2022-09-25T22:12:26.199Z,10.80
2022-09-25T22:14:56.741Z,10.80
2022-09-25T22:17:27.248Z,10.90
2022-09-25T22:20:00.529Z,11.00
2022-09-25T22:22:30.035Z,11.20
2022-09-25T22:25:00.548Z,11.30
2022-09-25T22:27:31.119Z,11.30
2022-09-25T22:30:01.702Z,11.50
2022-09-25T22:32:33.805Z,11.60
2022-09-25T22:35:04.571Z,11.70
2022-09-25T22:37:35.108Z,11.60
2022-09-25T22:40:06.869Z,11.50
2022-09-25T22:42:37.455Z,11.60
2022-09-25T22:45:09.446Z,11.60
2022-09-25T22:47:40.024Z,11.60
2022-09-25T22:50:12.022Z,11.60
2022-09-25T22:52:42.545Z,11.60
2022-09-25T22:55:13.109Z,11.70
2022-09-25T22:57:43.655Z,11.80
2022-09-25T23:00:16.741Z,11.80
2022-09-25T23:02:47.412Z,11.90
2022-09-25T23:05:18.166Z,11.80
2022-09-25T23:07:50.293Z,11.70
2022-09-25T23:10:21.009Z,11.70
2022-09-25T23:12:51.544Z,11.70
2022-09-25T23:15:22.065Z,11.70
2022-09-25T23:17:52.618Z,11.70
2022-09-25T23:20:23.186Z,11.70
2022-09-25T23:22:53.866Z,11.60
2022-09-25T23:25:24.428Z,11.60
2022-09-25T23:27:54.966Z,11.50
2022-09-25T23:30:26.354Z,11.50
2022-09-25T23:32:57.191Z,11.50
2022-09-25T23:35:27.847Z,11.40
2022-09-25T23:37:58.404Z,11.40
2022-09-25T23:40:29.496Z,11.40
2022-09-25T23:43:02.032Z,11.30
2022-09-25T23:45:32.574Z,11.20
2022-09-25T23:48:03.722Z,11.30
2022-09-25T23:50:33.647Z,11.40
2022-09-25T23:53:04.193Z,11.40
2022-09-25T23:55:34.778Z,11.40
2022-09-25T23:58:06.013Z,11.40
